Bookmark and Share
Track history (hours):
 

Liverpool Express

Last reported at 2014-Apr-16 18:00 UTC. Time now 2014-Apr-17 01:05 UTC.
Position N 41°48' W 036°18'.

Length 281 m; draft 11.3 m.

Type: Cargo ship. MMSI: 218025000.

Wind from 360 at 25 knots

Waves 2.5 meters (8 feet)

Barometer 1025.5 mb
Air temperature 13.7 ° C
Visibility: greater than 10.8 NM
Dewpoint 5.5 ° C
Water temperature 14.4 ° C

NotesDate/timePositionNaut miles runAvg speedWind from/ knotsBaromVisibWave heightAir tempDewpointWater temp
2014-Apr-16 18:00N 41°48' W 036°18'21818.2 360 / 251025.510.8 2.513.7 5.514.4
2014-Apr-16 06:00N 43°36' W 032°00'22618.8 020 / 251021.010.8 2.511.5 8.714.1
2014-Apr-15 18:00N 45°18' W 027°18'22118.4 010 / 201014.210.8 1.513.6 9.912.7
2014-Apr-15 06:00N 46°42' W 022°24'23719.7 130 / 81013.310.8 0.512.010.212.7
2014-Apr-14 18:00N 48°00' W 016°54'22318.6 110 / 171020.010.8 1.510.4 8.712.3
2014-Apr-14 06:00N 49°00' W 011°30'34319.4 060 / 71027.210.8 0.510.2 5.911.5
2014-Apr-13 12:21N 50°01' W 002°51'2322.4
2014-Apr-13 11:19N 50°07' W 002°16'1721.9
2014-Apr-13 10:33N 50°11' W 001°51'2020.4
2014-Apr-13 09:33N 50°17' W 001°20'1918.8
2014-Apr-13 08:33N 50°22' W 000°52'1717.5
2014-Apr-13 07:33N 50°28' W 000°26'1817.4
2014-Apr-13 06:32N 50°33' E 000°01'1717.8
2014-Apr-13 05:33N 50°36' E 000°28'1919.4
2014-Apr-13 04:33N 50°45' E 000°56'2020.3
2014-Apr-13 03:33N 50°57' E 001°21'1919.3
2014-Apr-13 02:33N 51°11' E 001°42'1817.5
2014-Apr-13 01:33N 51°26' E 001°58'1717.0
2014-Apr-13 00:33N 51°22' E 002°25'1414.4
2014-Apr-12 23:33N 51°22' E 002°48'1616.1
2014-Apr-12 22:34N 51°24' E 003°13'1414.2
2014-Apr-12 21:33N 51°26' E 003°36'1010.0
2014-Apr-12 20:34N 51°21' E 003°50'9 9.0
2014-Apr-12 19:33N 51°22' E 004°04'9 9.0
2014-Apr-12 18:34N 51°18' E 004°16'1 0.7
2014-Apr-12 17:30N 51°17' E 004°16'0 0.0
2014-Apr-12 16:21N 51°17' E 004°16'0 0.0
2014-Apr-12 15:27N 51°17' E 004°16'0 0.0
2014-Apr-12 14:33N 51°17' E 004°16'0 0.0
2014-Apr-12 13:30N 51°17' E 004°16'0 0.0
2014-Apr-12 12:29N 51°17' E 004°16'0 0.0
2014-Apr-12 11:33N 51°17' E 004°16'0 0.0
2014-Apr-12 10:31N 51°17' E 004°16'0 0.0
2014-Apr-12 09:32N 51°17' E 004°16'0 0.0
2014-Apr-12 08:32N 51°17' E 004°16'0 0.0
2014-Apr-12 07:32N 51°17' E 004°16'0 0.0
2014-Apr-12 06:33N 51°17' E 004°16'0 0.0
2014-Apr-12 05:32N 51°17' E 004°16'0 0.0
2014-Apr-12 04:31N 51°17' E 004°16'0 0.0
2014-Apr-12 03:33N 51°17' E 004°16'0 0.0
2014-Apr-12 02:33N 51°17' E 004°16'0 0.1
2014-Apr-12 01:34N 51°17' E 004°16'7 6.6
2014-Apr-12 00:33N 51°23' E 004°09'1010.2
2014-Apr-11 23:34N 51°21' E 003°53'1413.5
2014-Apr-11 22:33N 51°25' E 003°32'1918.9
2014-Apr-11 21:33N 51°25' E 003°02'1716.8
2014-Apr-11 20:33N 51°40' E 003°11'1111.0
2014-Apr-11 19:33N 51°51' E 003°18'1918.6
2014-Apr-11 18:32N 52°09' E 003°23'2019.8
2014-Apr-11 17:33N 52°29' E 003°28'2218.8
2014-Apr-11 16:24N 52°48' E 003°46'3519.2
2014-Apr-11 14:33N 53°12' E 004°27'2117.6
2014-Apr-11 13:23N 53°30' E 004°44'1618.6
2014-Apr-11 12:33N 53°36' E 005°08'1919.1
2014-Apr-11 11:33N 53°42' E 005°39'1919.3
2014-Apr-11 10:33N 53°48' E 006°10'1918.7
2014-Apr-11 09:33N 53°53' E 006°41'1817.7
2014-Apr-11 08:34N 53°57' E 007°10'1716.7
2014-Apr-11 07:34N 54°02' E 007°37'1716.5
2014-Apr-11 06:33N 54°01' E 008°05'1414.3
2014-Apr-11 05:34N 53°59' E 008°29'1413.9
2014-Apr-11 04:33N 53°50' E 008°48'1414.0
2014-Apr-11 03:33N 53°53' E 009°12'1414.3
2014-Apr-11 02:33N 53°43' E 009°29'1312.5
2014-Apr-11 01:33N 53°34' E 009°44'7 6.9
2014-Apr-11 00:30N 53°32' E 009°55'0 0.0
2014-Apr-10 23:33N 53°32' E 009°55'0 0.1
2014-Apr-10 22:33N 53°32' E 009°55'0 0.0
2014-Apr-10 21:32N 53°32' E 009°55'0 0.0
2014-Apr-10 20:29N 53°32' E 009°55'0 0.0
2014-Apr-10 19:32N 53°32' E 009°55'0 0.0
2014-Apr-10 18:32N 53°32' E 009°55'0 0.0
2014-Apr-10 17:32N 53°32' E 009°55'0 0.0
2014-Apr-10 16:33N 53°32' E 009°55'0 0.0
2014-Apr-10 15:34N 53°32' E 009°55'0 0.0
2014-Apr-10 14:32N 53°32' E 009°55'0 0.0
2014-Apr-10 13:32N 53°32' E 009°55'0 0.0
2014-Apr-10 12:32N 53°32' E 009°55'0 0.0
2014-Apr-10 11:32N 53°32' E 009°55'0 0.0
2014-Apr-10 10:33N 53°32' E 009°55'0 0.0
2014-Apr-10 09:33N 53°32' E 009°55'0 0.0
2014-Apr-10 08:28N 53°32' E 009°55'0 0.0
2014-Apr-10 07:30N 53°32' E 009°55'0 0.0
2014-Apr-10 06:32N 53°32' E 009°55'0 0.0
2014-Apr-10 05:29N 53°32' E 009°55'0 0.0
2014-Apr-10 04:32N 53°32' E 009°55'0 0.0
2014-Apr-10 03:31N 53°32' E 009°55'0 0.0
2014-Apr-10 02:31N 53°32' E 009°55'0 0.0
2014-Apr-10 01:31N 53°32' E 009°55'0 0.0
2014-Apr-10 00:33N 53°32' E 009°55'0 0.0
2014-Apr-09 23:30N 53°32' E 009°55'1 0.7
2014-Apr-09 22:33N 53°32' E 009°54'8 7.5
2014-Apr-09 21:33N 53°34' E 009°42'1110.7
2014-Apr-09 20:34N 53°42' E 009°30'1111.3
2014-Apr-09 19:33N 53°51' E 009°19'1111.0
2014-Apr-09 18:33N 53°51' E 009°00'1111.1
2014-Apr-09 17:33N 53°54' E 008°42'1313.5
2014-Apr-09 16:33N 53°59' E 008°21'1111.2
2014-Apr-09 15:33N 53°59' E 008°02'6 6.1
2014-Apr-09 14:33N 53°58' E 007°52'8 7.9
2014-Apr-09 13:33N 53°56' E 007°39'9 8.8
2014-Apr-09 12:33N 53°54' E 007°24'712.9
2014-Apr-09 12:00N 53°48' E 007°18'613.8 280 / 211021.2 5.4 1.510.8 7.4 7.8
2014-Apr-09 11:33N 53°52' E 007°11'8 7.8
2014-Apr-09 10:33N 53°51' E 006°58'8 7.7
2014-Apr-09 09:33N 53°49' E 006°45'9 7.7
2014-Apr-09 08:22N 53°47' E 006°30'7 8.2
2014-Apr-09 07:33N 53°45' E 006°19'1211.6
2014-Apr-09 06:33N 53°42' E 006°01'1413.8
2014-Apr-09 05:33N 53°37' E 005°39'1413.9
2014-Apr-09 04:33N 53°33' E 005°17'1818.0
2014-Apr-09 03:33N 53°26' E 004°48'1716.8
2014-Apr-09 02:33N 53°12' E 004°33'1817.6
2014-Apr-09 01:34N 52°57' E 004°19'1817.6
2014-Apr-09 00:33N 52°42' E 004°03'1818.0
2014-Apr-08 23:33N 52°29' E 003°42'1918.3
2014-Apr-08 22:31N 52°16' E 003°20'1818.4
2014-Apr-08 21:33N 52°02' E 003°02'1818.1
2014-Apr-08 20:33N 51°57' E 002°33'1818.3
2014-Apr-08 19:34N 51°52' E 002°05'1515.5
2014-Apr-08 18:33N 51°51' E 001°40'1111.0
2014-Apr-08 17:33N 51°43' E 001°29'1615.7
2014-Apr-08 16:34N 51°33' E 001°09'1515.1
2014-Apr-08 15:33N 51°29' E 000°45'1211.6
2014-Apr-08 14:34N 51°28' E 000°27'4 4.2
2014-Apr-08 13:33N 51°28' E 000°20'0 0.0
2014-Apr-08 12:33N 51°28' E 000°20'0 0.0
2014-Apr-08 11:34N 51°28' E 000°20'0 0.0
2014-Apr-08 10:34N 51°28' E 000°20'0 0.0
2014-Apr-08 09:34N 51°28' E 000°20'0 0.0
2014-Apr-08 08:34N 51°28' E 000°20'0 0.0
2014-Apr-08 07:34N 51°28' E 000°20'0 0.0
2014-Apr-08 06:33N 51°28' E 000°20'0 0.0
2014-Apr-08 05:34N 51°28' E 000°20'0 0.0
2014-Apr-08 04:33N 51°28' E 000°20'0 0.0
2014-Apr-08 03:34N 51°28' E 000°20'0 0.0
2014-Apr-08 02:34N 51°28' E 000°20'0 0.0
2014-Apr-08 01:34N 51°28' E 000°20'0 0.0
2014-Apr-08 00:34N 51°28' E 000°20'0 0.0
2014-Apr-07 23:33N 51°28' E 000°20'0 0.0
2014-Apr-07 22:34N 51°28' E 000°20'0 0.0
2014-Apr-07 21:34N 51°28' E 000°20'0 0.0
2014-Apr-07 20:34N 51°27' E 000°20'0 0.0
2014-Apr-07 19:33N 51°28' E 000°20'0 0.0
2014-Apr-07 17:34N 51°28' E 000°20'2 2.1
2014-Apr-07 16:33N 51°27' E 000°23'1010.4
2014-Apr-07 15:34N 51°30' E 000°39'8 7.7
2014-Apr-07 14:33N 51°30' E 000°52'1010.0
2014-Apr-07 13:33N 51°32' E 001°07'1515.5
2014-Apr-07 12:33N 51°41' E 001°27'1312.9
2014-Apr-07 11:33N 51°52' E 001°40'2 2.3
2014-Apr-07 10:32N 51°54' E 001°41'0 0.0
2014-Apr-07 09:32N 51°54' E 001°41'0 0.0
2014-Apr-07 08:29N 51°54' E 001°41'0 0.0
2014-Apr-07 07:32N 51°54' E 001°41'0 0.0
2014-Apr-07 06:32N 51°54' E 001°41'0 0.0
2014-Apr-07 05:32N 51°54' E 001°41'0 0.0
2014-Apr-07 04:32N 51°54' E 001°41'0 0.2
2014-Apr-07 03:32N 51°54' E 001°41'0 0.1
2014-Apr-07 02:29N 51°54' E 001°41'0 0.0
2014-Apr-07 01:32N 51°54' E 001°41'5 5.5
2014-Apr-07 00:33N 51°51' E 001°48'1110.6
2014-Apr-06 23:33N 51°53' E 002°05'6315.8
2014-Apr-06 19:34N 52°03' E 003°46'1313.2
2014-Apr-06 18:33N 51°59' E 004°06'  

Dump ship's entire track history

sailing weather and tide predictions

Liverpool Express — DDSD2 — position and weather